sensor_id;sensor_type;location;lat;lon;timestamp;temperature;humidity
34829;DHT22;21042;47.620;12.188;2023-02-10T00:02:05;-3.50;99.90
34829;DHT22;21042;47.620;12.188;2023-02-10T00:04:31;-3.40;99.90
34829;DHT22;21042;47.620;12.188;2023-02-10T00:06:58;-3.40;99.90
34829;DHT22;21042;47.620;12.188;2023-02-10T00:09:25;-3.30;99.90
34829;DHT22;21042;47.620;12.188;2023-02-10T00:11:51;-3.30;99.90
34829;DHT22;21042;47.620;12.188;2023-02-10T00:14:27;-3.20;99.90
34829;DHT22;21042;47.620;12.188;2023-02-10T00:16:55;-3.30;99.90
34829;DHT22;21042;47.620;12.188;2023-02-10T00:19:25;-3.30;99.90
34829;DHT22;21042;47.620;12.188;2023-02-10T00:21:52;-3.30;99.90
34829;DHT22;21042;47.620;12.188;2023-02-10T00:24:20;-3.40;99.90
34829;DHT22;21042;47.620;12.188;2023-02-10T00:26:48;-3.40;99.90
34829;DHT22;21042;47.620;12.188;2023-02-10T00:29:15;-3.50;99.90
34829;DHT22;21042;47.620;12.188;2023-02-10T00:31:42;-3.50;99.90
34829;DHT22;21042;47.620;12.188;2023-02-10T00:34:13;-3.60;99.90
34829;DHT22;21042;47.620;12.188;2023-02-10T00:36:41;-3.60;99.90
34829;DHT22;21042;47.620;12.188;2023-02-10T00:39:11;-3.70;99.90
34829;DHT22;21042;47.620;12.188;2023-02-10T00:41:38;-3.70;99.90
34829;DHT22;21042;47.620;12.188;2023-02-10T00:44:05;-3.80;99.90
34829;DHT22;21042;47.620;12.188;2023-02-10T00:46:32;-3.80;99.90
34829;DHT22;21042;47.620;12.188;2023-02-10T00:48:59;-3.70;99.90
34829;DHT22;21042;47.620;12.188;2023-02-10T00:51:26;-3.70;99.90
34829;DHT22;21042;47.620;12.188;2023-02-10T00:53:52;-3.80;99.90
34829;DHT22;21042;47.620;12.188;2023-02-10T00:56:20;-3.80;99.90
34829;DHT22;21042;47.620;12.188;2023-02-10T00:58:47;-3.80;99.90
34829;DHT22;21042;47.620;12.188;2023-02-10T01:01:14;-3.70;99.90
34829;DHT22;21042;47.620;12.188;2023-02-10T01:03:41;-3.70;99.90
34829;DHT22;21042;47.620;12.188;2023-02-10T01:06:09;-3.70;99.90
34829;DHT22;21042;47.620;12.188;2023-02-10T01:08:36;-3.60;99.90
34829;DHT22;21042;47.620;12.188;2023-02-10T01:11:06;-3.70;99.90
34829;DHT22;21042;47.620;12.188;2023-02-10T01:13:35;-3.60;99.90
34829;DHT22;21042;47.620;12.188;2023-02-10T01:16:11;-3.60;99.90
34829;DHT22;21042;47.620;12.188;2023-02-10T01:18:40;-3.60;99.90
34829;DHT22;21042;47.620;12.188;2023-02-10T01:21:13;-3.60;99.90
34829;DHT22;21042;47.620;12.188;2023-02-10T01:23:42;-3.60;99.90
34829;DHT22;21042;47.620;12.188;2023-02-10T01:26:09;-3.60;99.90
34829;DHT22;21042;47.620;12.188;2023-02-10T01:28:38;-3.60;99.90
34829;DHT22;21042;47.620;12.188;2023-02-10T01:31:14;-3.70;99.90
34829;DHT22;21042;47.620;12.188;2023-02-10T01:33:42;-3.70;99.90
34829;DHT22;21042;47.620;12.188;2023-02-10T01:36:12;-3.70;99.90
34829;DHT22;21042;47.620;12.188;2023-02-10T01:38:40;-3.70;99.90
34829;DHT22;21042;47.620;12.188;2023-02-10T01:41:13;-3.70;99.90
34829;DHT22;21042;47.620;12.188;2023-02-10T01:46:46;-3.60;99.90
34829;DHT22;21042;47.620;12.188;2023-02-10T01:49:16;-3.50;99.90
34829;DHT22;21042;47.620;12.188;2023-02-10T01:51:52;-3.50;99.90
34829;DHT22;21042;47.620;12.188;2023-02-10T01:54:54;-3.50;99.90
34829;DHT22;21042;47.620;12.188;2023-02-10T01:57:18;-3.40;99.90
34829;DHT22;21042;47.620;12.188;2023-02-10T01:59:45;-3.40;99.90
34829;DHT22;21042;47.620;12.188;2023-02-10T02:02:13;-3.40;99.90
34829;DHT22;21042;47.620;12.188;2023-02-10T02:04:52;-3.40;99.90
34829;DHT22;21042;47.620;12.188;2023-02-10T02:07:22;-3.50;99.90
34829;DHT22;21042;47.620;12.188;2023-02-10T02:09:50;-3.40;99.90
34829;DHT22;21042;47.620;12.188;2023-02-10T02:12:48;-3.40;99.90
34829;DHT22;21042;47.620;12.188;2023-02-10T02:18:12;-3.50;99.90
34829;DHT22;21042;47.620;12.188;2023-02-10T02:26:32;-3.70;99.90
34829;DHT22;21042;47.620;12.188;2023-02-10T02:29:17;-3.70;99.90
34829;DHT22;21042;47.620;12.188;2023-02-10T02:34:53;-3.70;99.90
34829;DHT22;21042;47.620;12.188;2023-02-10T02:37:30;-3.80;99.90
34829;DHT22;21042;47.620;12.188;2023-02-10T02:39:58;-3.90;99.90
34829;DHT22;21042;47.620;12.188;2023-02-10T02:42:25;-3.90;99.90
34829;DHT22;21042;47.620;12.188;2023-02-10T02:44:57;-3.90;99.90
34829;DHT22;21042;47.620;12.188;2023-02-10T02:47:31;-3.90;99.90
34829;DHT22;21042;47.620;12.188;2023-02-10T02:50:23;-3.90;99.90
34829;DHT22;21042;47.620;12.188;2023-02-10T03:01:08;-4.00;99.90
34829;DHT22;21042;47.620;12.188;2023-02-10T03:03:36;-4.10;99.90
34829;DHT22;21042;47.620;12.188;2023-02-10T03:06:06;-4.20;99.90
34829;DHT22;21042;47.620;12.188;2023-02-10T03:08:36;-4.30;99.90
34829;DHT22;21042;47.620;12.188;2023-02-10T03:11:04;-4.30;99.90
34829;DHT22;21042;47.620;12.188;2023-02-10T03:13:31;-4.10;99.90
34829;DHT22;21042;47.620;12.188;2023-02-10T03:15:58;-4.30;99.90
34829;DHT22;21042;47.620;12.188;2023-02-10T03:18:26;-4.40;99.90
34829;DHT22;21042;47.620;12.188;2023-02-10T03:20:53;-4.40;99.90
34829;DHT22;21042;47.620;12.188;2023-02-10T03:23:19;-4.40;99.90
34829;DHT22;21042;47.620;12.188;2023-02-10T03:25:46;-4.50;99.90
34829;DHT22;21042;47.620;12.188;2023-02-10T03:28:14;-4.60;99.90
34829;DHT22;21042;47.620;12.188;2023-02-10T03:30:41;-4.50;99.90
34829;DHT22;21042;47.620;12.188;2023-02-10T03:33:14;-4.50;99.90
34829;DHT22;21042;47.620;12.188;2023-02-10T03:35:42;-4.50;99.90
34829;DHT22;21042;47.620;12.188;2023-02-10T03:38:09;-4.50;99.90
34829;DHT22;21042;47.620;12.188;2023-02-10T03:40:36;-4.60;99.90
34829;DHT22;21042;47.620;12.188;2023-02-10T03:43:03;-4.60;99.90
34829;DHT22;21042;47.620;12.188;2023-02-10T03:45:30;-4.50;99.90
34829;DHT22;21042;47.620;12.188;2023-02-10T03:47:57;-4.50;99.90
34829;DHT22;21042;47.620;12.188;2023-02-10T03:50:25;-4.50;99.90
34829;DHT22;21042;47.620;12.188;2023-02-10T03:52:52;-4.50;99.90
34829;DHT22;21042;47.620;12.188;2023-02-10T03:55:18;-4.50;99.90
34829;DHT22;21042;47.620;12.188;2023-02-10T03:57:46;-4.60;99.90
34829;DHT22;21042;47.620;12.188;2023-02-10T04:00:13;-4.60;99.90
34829;DHT22;21042;47.620;12.188;2023-02-10T04:02:42;-4.60;99.90
34829;DHT22;21042;47.620;12.188;2023-02-10T04:05:09;-4.70;99.90
34829;DHT22;21042;47.620;12.188;2023-02-10T04:07:36;-4.80;99.90
34829;DHT22;21042;47.620;12.188;2023-02-10T04:10:03;-5.00;99.90
34829;DHT22;21042;47.620;12.188;2023-02-10T04:12:30;-5.00;99.90
34829;DHT22;21042;47.620;12.188;2023-02-10T04:14:57;-5.00;99.90
34829;DHT22;21042;47.620;12.188;2023-02-10T04:17:24;-4.90;99.90
34829;DHT22;21042;47.620;12.188;2023-02-10T04:19:50;-4.90;99.90
34829;DHT22;21042;47.620;12.188;2023-02-10T04:22:17;-4.90;99.90
34829;DHT22;21042;47.620;12.188;2023-02-10T04:24:44;-4.80;99.90
34829;DHT22;21042;47.620;12.188;2023-02-10T04:27:10;-4.80;99.90
34829;DHT22;21042;47.620;12.188;2023-02-10T04:29:37;-4.90;99.90
34829;DHT22;21042;47.620;12.188;2023-02-10T04:32:07;-4.80;99.90
34829;DHT22;21042;47.620;12.188;2023-02-10T04:34:34;-4.90;99.90
34829;DHT22;21042;47.620;12.188;2023-02-10T04:37:01;-4.80;99.90
34829;DHT22;21042;47.620;12.188;2023-02-10T04:39:27;-4.80;99.90
34829;DHT22;21042;47.620;12.188;2023-02-10T04:41:54;-4.90;99.90
34829;DHT22;21042;47.620;12.188;2023-02-10T04:44:21;-4.90;99.90
34829;DHT22;21042;47.620;12.188;2023-02-10T04:46:48;-4.80;99.90
34829;DHT22;21042;47.620;12.188;2023-02-10T04:49:17;-4.90;99.90
34829;DHT22;21042;47.620;12.188;2023-02-10T04:51:44;-5.00;99.90
34829;DHT22;21042;47.620;12.188;2023-02-10T04:54:10;-5.10;99.90
34829;DHT22;21042;47.620;12.188;2023-02-10T04:56:37;-5.10;99.90
34829;DHT22;21042;47.620;12.188;2023-02-10T04:59:04;-5.20;99.90
34829;DHT22;21042;47.620;12.188;2023-02-10T05:01:31;-5.20;99.90
34829;DHT22;21042;47.620;12.188;2023-02-10T05:03:57;-5.20;99.90
34829;DHT22;21042;47.620;12.188;2023-02-10T05:06:25;-5.20;99.90
34829;DHT22;21042;47.620;12.188;2023-02-10T05:08:51;-5.20;99.90
34829;DHT22;21042;47.620;12.188;2023-02-10T05:11:19;-5.30;99.90
34829;DHT22;21042;47.620;12.188;2023-02-10T05:13:46;-5.30;99.90
34829;DHT22;21042;47.620;12.188;2023-02-10T05:16:14;-5.20;99.90
34829;DHT22;21042;47.620;12.188;2023-02-10T05:18:41;-5.20;99.90
34829;DHT22;21042;47.620;12.188;2023-02-10T05:21:10;-5.10;99.90
34829;DHT22;21042;47.620;12.188;2023-02-10T05:23:39;-5.10;99.90
34829;DHT22;21042;47.620;12.188;2023-02-10T05:26:06;-5.10;99.90
34829;DHT22;21042;47.620;12.188;2023-02-10T05:28:33;-5.10;99.90
34829;DHT22;21042;47.620;12.188;2023-02-10T05:31:01;-5.10;99.90
34829;DHT22;21042;47.620;12.188;2023-02-10T05:33:30;-5.40;99.90
34829;DHT22;21042;47.620;12.188;2023-02-10T05:35:57;-5.50;99.90
34829;DHT22;21042;47.620;12.188;2023-02-10T05:38:24;-5.40;99.90
34829;DHT22;21042;47.620;12.188;2023-02-10T05:40:52;-5.40;99.90
34829;DHT22;21042;47.620;12.188;2023-02-10T05:43:20;-5.40;99.90
34829;DHT22;21042;47.620;12.188;2023-02-10T05:45:46;-5.50;99.90
34829;DHT22;21042;47.620;12.188;2023-02-10T05:48:14;-5.50;99.90
34829;DHT22;21042;47.620;12.188;2023-02-10T05:50:41;-5.50;99.90
34829;DHT22;21042;47.620;12.188;2023-02-10T05:53:12;-5.50;99.90
34829;DHT22;21042;47.620;12.188;2023-02-10T05:55:39;-5.50;99.90
34829;DHT22;21042;47.620;12.188;2023-02-10T05:58:06;-5.50;99.90
34829;DHT22;21042;47.620;12.188;2023-02-10T06:00:33;-5.50;99.90
34829;DHT22;21042;47.620;12.188;2023-02-10T06:03:00;-5.50;99.90
34829;DHT22;21042;47.620;12.188;2023-02-10T06:05:26;-5.50;99.90
34829;DHT22;21042;47.620;12.188;2023-02-10T06:07:53;-5.50;99.90
34829;DHT22;21042;47.620;12.188;2023-02-10T06:10:22;-5.50;99.90
34829;DHT22;21042;47.620;12.188;2023-02-10T06:12:49;-5.50;99.90
34829;DHT22;21042;47.620;12.188;2023-02-10T06:15:16;-5.50;99.90
34829;DHT22;21042;47.620;12.188;2023-02-10T06:17:42;-5.40;99.90
34829;DHT22;21042;47.620;12.188;2023-02-10T06:20:10;-5.50;99.90
34829;DHT22;21042;47.620;12.188;2023-02-10T06:22:36;-5.40;99.90
34829;DHT22;21042;47.620;12.188;2023-02-10T06:25:03;-5.40;99.90
34829;DHT22;21042;47.620;12.188;2023-02-10T06:27:43;-5.30;99.90
34829;DHT22;21042;47.620;12.188;2023-02-10T06:30:10;-5.40;99.90
34829;DHT22;21042;47.620;12.188;2023-02-10T06:32:36;-5.50;99.90
34829;DHT22;21042;47.620;12.188;2023-02-10T06:35:03;-5.50;99.90
34829;DHT22;21042;47.620;12.188;2023-02-10T06:37:30;-5.50;99.90
34829;DHT22;21042;47.620;12.188;2023-02-10T06:39:57;-5.50;99.90
34829;DHT22;21042;47.620;12.188;2023-02-10T06:42:23;-5.60;99.90
34829;DHT22;21042;47.620;12.188;2023-02-10T06:44:50;-5.50;99.90
34829;DHT22;21042;47.620;12.188;2023-02-10T06:47:17;-5.50;99.90
34829;DHT22;21042;47.620;12.188;2023-02-10T06:49:43;-5.50;99.90
34829;DHT22;21042;47.620;12.188;2023-02-10T06:52:10;-5.40;99.90
34829;DHT22;21042;47.620;12.188;2023-02-10T06:54:43;-5.40;99.90
34829;DHT22;21042;47.620;12.188;2023-02-10T06:57:09;-5.40;99.90
34829;DHT22;21042;47.620;12.188;2023-02-10T06:59:36;-5.30;99.90
34829;DHT22;21042;47.620;12.188;2023-02-10T07:02:03;-5.30;99.90
34829;DHT22;21042;47.620;12.188;2023-02-10T07:04:31;-5.30;99.90
34829;DHT22;21042;47.620;12.188;2023-02-10T07:06:58;-5.30;99.90
34829;DHT22;21042;47.620;12.188;2023-02-10T07:09:25;-5.30;99.90
34829;DHT22;21042;47.620;12.188;2023-02-10T07:11:51;-5.20;99.90
34829;DHT22;21042;47.620;12.188;2023-02-10T07:14:18;-5.10;99.90
34829;DHT22;21042;47.620;12.188;2023-02-10T07:16:45;-5.10;99.90
34829;DHT22;21042;47.620;12.188;2023-02-10T07:19:12;-5.10;99.90
34829;DHT22;21042;47.620;12.188;2023-02-10T07:21:39;-5.10;99.90
34829;DHT22;21042;47.620;12.188;2023-02-10T07:24:06;-5.20;99.90
34829;DHT22;21042;47.620;12.188;2023-02-10T07:26:33;-5.20;99.90
34829;DHT22;21042;47.620;12.188;2023-02-10T07:28:59;-5.20;99.90
34829;DHT22;21042;47.620;12.188;2023-02-10T07:31:26;-5.10;99.90
34829;DHT22;21042;47.620;12.188;2023-02-10T07:33:53;-5.10;99.90
34829;DHT22;21042;47.620;12.188;2023-02-10T07:36:20;-5.00;99.90
34829;DHT22;21042;47.620;12.188;2023-02-10T07:38:47;-5.00;99.90
34829;DHT22;21042;47.620;12.188;2023-02-10T07:41:13;-5.00;99.90
34829;DHT22;21042;47.620;12.188;2023-02-10T07:43:40;-5.10;99.90
34829;DHT22;21042;47.620;12.188;2023-02-10T07:46:12;-5.10;99.90
34829;DHT22;21042;47.620;12.188;2023-02-10T07:48:41;-5.10;99.90
34829;DHT22;21042;47.620;12.188;2023-02-10T07:51:08;-5.10;99.90
34829;DHT22;21042;47.620;12.188;2023-02-10T07:53:34;-5.00;99.90
34829;DHT22;21042;47.620;12.188;2023-02-10T07:56:04;-4.90;99.90
34829;DHT22;21042;47.620;12.188;2023-02-10T07:58:31;-4.90;99.90
34829;DHT22;21042;47.620;12.188;2023-02-10T08:00:58;-4.80;99.90
34829;DHT22;21042;47.620;12.188;2023-02-10T08:03:24;-4.70;99.90
34829;DHT22;21042;47.620;12.188;2023-02-10T08:05:51;-4.50;99.90
34829;DHT22;21042;47.620;12.188;2023-02-10T08:08:18;-4.30;99.90
34829;DHT22;21042;47.620;12.188;2023-02-10T08:10:44;-4.20;99.90
34829;DHT22;21042;47.620;12.188;2023-02-10T08:13:11;-4.00;99.90
34829;DHT22;21042;47.620;12.188;2023-02-10T08:15:38;-4.00;99.90
34829;DHT22;21042;47.620;12.188;2023-02-10T08:18:05;-3.80;99.90
34829;DHT22;21042;47.620;12.188;2023-02-10T08:20:32;-3.80;99.90
34829;DHT22;21042;47.620;12.188;2023-02-10T08:22:59;-3.70;99.90
34829;DHT22;21042;47.620;12.188;2023-02-10T08:25:26;-3.70;99.90
34829;DHT22;21042;47.620;12.188;2023-02-10T08:27:53;-3.70;99.90
34829;DHT22;21042;47.620;12.188;2023-02-10T08:30:20;-3.50;99.90
34829;DHT22;21042;47.620;12.188;2023-02-10T08:32:46;-3.40;99.90
34829;DHT22;21042;47.620;12.188;2023-02-10T08:35:15;-3.30;99.90
34829;DHT22;21042;47.620;12.188;2023-02-10T08:37:42;-3.30;99.90
34829;DHT22;21042;47.620;12.188;2023-02-10T08:40:09;-3.10;99.90
34829;DHT22;21042;47.620;12.188;2023-02-10T08:42:36;-3.00;99.90
34829;DHT22;21042;47.620;12.188;2023-02-10T08:45:03;-2.80;99.90
34829;DHT22;21042;47.620;12.188;2023-02-10T08:47:30;-2.70;99.90
34829;DHT22;21042;47.620;12.188;2023-02-10T08:49:56;-2.60;99.90
34829;DHT22;21042;47.620;12.188;2023-02-10T08:52:23;-2.50;99.90
34829;DHT22;21042;47.620;12.188;2023-02-10T08:54:51;-2.50;99.90
34829;DHT22;21042;47.620;12.188;2023-02-10T08:57:18;-2.40;99.90
34829;DHT22;21042;47.620;12.188;2023-02-10T08:59:45;-2.30;99.90
34829;DHT22;21042;47.620;12.188;2023-02-10T09:02:12;-2.20;99.90
34829;DHT22;21042;47.620;12.188;2023-02-10T09:04:39;-2.10;99.90
34829;DHT22;21042;47.620;12.188;2023-02-10T09:07:06;-2.10;99.90
34829;DHT22;21042;47.620;12.188;2023-02-10T09:09:37;-1.90;99.90
34829;DHT22;21042;47.620;12.188;2023-02-10T09:12:04;-1.80;99.90
34829;DHT22;21042;47.620;12.188;2023-02-10T09:14:30;-1.70;99.90
34829;DHT22;21042;47.620;12.188;2023-02-10T09:16:57;-1.70;99.90
34829;DHT22;21042;47.620;12.188;2023-02-10T09:19:24;-1.60;99.90
34829;DHT22;21042;47.620;12.188;2023-02-10T09:21:51;-1.50;99.90
34829;DHT22;21042;47.620;12.188;2023-02-10T09:24:18;-1.50;99.90
34829;DHT22;21042;47.620;12.188;2023-02-10T09:26:44;-1.30;99.90
34829;DHT22;21042;47.620;12.188;2023-02-10T09:29:12;-1.30;99.90
34829;DHT22;21042;47.620;12.188;2023-02-10T09:31:38;-1.30;99.90
34829;DHT22;21042;47.620;12.188;2023-02-10T09:34:05;-1.30;99.90
34829;DHT22;21042;47.620;12.188;2023-02-10T09:36:32;-1.20;99.90
34829;DHT22;21042;47.620;12.188;2023-02-10T09:38:59;-1.10;99.90
34829;DHT22;21042;47.620;12.188;2023-02-10T09:44:13;-0.90;99.90
34829;DHT22;21042;47.620;12.188;2023-02-10T09:54:45;-0.60;99.90
34829;DHT22;21042;47.620;12.188;2023-02-10T09:57:13;-0.40;99.90
34829;DHT22;21042;47.620;12.188;2023-02-10T09:59:42;-0.40;99.90
34829;DHT22;21042;47.620;12.188;2023-02-10T10:02:30;-0.30;99.90
34829;DHT22;21042;47.620;12.188;2023-02-10T10:04:59;-0.20;99.90
34829;DHT22;21042;47.620;12.188;2023-02-10T10:07:31;-0.20;99.90
34829;DHT22;21042;47.620;12.188;2023-02-10T10:10:22;-0.10;99.90
34829;DHT22;21042;47.620;12.188;2023-02-10T10:12:51;0.00;99.90
34829;DHT22;21042;47.620;12.188;2023-02-10T10:15:18;0.00;99.90
34829;DHT22;21042;47.620;12.188;2023-02-10T10:17:58;0.10;99.90
34829;DHT22;21042;47.620;12.188;2023-02-10T10:20:56;0.20;99.90
34829;DHT22;21042;47.620;12.188;2023-02-10T10:23:54;0.30;99.90
34829;DHT22;21042;47.620;12.188;2023-02-10T10:26:53;0.30;99.90
34829;DHT22;21042;47.620;12.188;2023-02-10T10:29:43;0.40;99.90
34829;DHT22;21042;47.620;12.188;2023-02-10T10:32:16;0.50;99.90
34829;DHT22;21042;47.620;12.188;2023-02-10T10:34:52;0.60;99.90
34829;DHT22;21042;47.620;12.188;2023-02-10T10:37:23;0.70;99.90
34829;DHT22;21042;47.620;12.188;2023-02-10T10:39:54;0.90;99.90
34829;DHT22;21042;47.620;12.188;2023-02-10T10:45:13;1.00;99.90
34829;DHT22;21042;47.620;12.188;2023-02-10T10:48:13;1.10;99.90
34829;DHT22;21042;47.620;12.188;2023-02-10T10:50:35;1.20;99.90
34829;DHT22;21042;47.620;12.188;2023-02-10T10:53:11;1.30;99.90
34829;DHT22;21042;47.620;12.188;2023-02-10T10:55:41;1.40;99.90
34829;DHT22;21042;47.620;12.188;2023-02-10T10:58:28;1.40;99.90
34829;DHT22;21042;47.620;12.188;2023-02-10T11:01:01;1.40;99.90
34829;DHT22;21042;47.620;12.188;2023-02-10T11:03:29;1.40;99.90
34829;DHT22;21042;47.620;12.188;2023-02-10T11:06:16;1.50;99.90
34829;DHT22;21042;47.620;12.188;2023-02-10T11:08:52;1.60;99.90
34829;DHT22;21042;47.620;12.188;2023-02-10T11:11:37;1.70;99.90
34829;DHT22;21042;47.620;12.188;2023-02-10T11:14:14;1.80;99.40
34829;DHT22;21042;47.620;12.188;2023-02-10T11:16:50;1.80;98.70
34829;DHT22;21042;47.620;12.188;2023-02-10T11:19:23;1.90;98.80
34829;DHT22;21042;47.620;12.188;2023-02-10T11:21:50;1.90;98.30
34829;DHT22;21042;47.620;12.188;2023-02-10T11:27:13;2.00;98.30
34829;DHT22;21042;47.620;12.188;2023-02-10T11:29:53;2.00;98.00
34829;DHT22;21042;47.620;12.188;2023-02-10T11:32:26;2.10;97.60
34829;DHT22;21042;47.620;12.188;2023-02-10T11:34:57;2.20;97.30
34829;DHT22;21042;47.620;12.188;2023-02-10T11:37:28;2.30;97.00
34829;DHT22;21042;47.620;12.188;2023-02-10T11:39:58;2.30;95.90
34829;DHT22;21042;47.620;12.188;2023-02-10T11:42:34;2.30;95.20
34829;DHT22;21042;47.620;12.188;2023-02-10T11:45:24;2.40;95.70
34829;DHT22;21042;47.620;12.188;2023-02-10T11:48:18;2.50;94.70
34829;DHT22;21042;47.620;12.188;2023-02-10T11:50:45;2.70;94.90
34829;DHT22;21042;47.620;12.188;2023-02-10T11:53:24;2.80;95.00
34829;DHT22;21042;47.620;12.188;2023-02-10T11:55:58;3.00;94.70
34829;DHT22;21042;47.620;12.188;2023-02-10T11:58:56;3.10;94.00
34829;DHT22;21042;47.620;12.188;2023-02-10T12:07:30;2.80;93.30
34829;DHT22;21042;47.620;12.188;2023-02-10T12:18:25;3.00;93.70
34829;DHT22;21042;47.620;12.188;2023-02-10T12:21:36;3.00;93.40
34829;DHT22;21042;47.620;12.188;2023-02-10T12:26:54;3.10;94.00
34829;DHT22;21042;47.620;12.188;2023-02-10T12:30:14;3.20;93.20
34829;DHT22;21042;47.620;12.188;2023-02-10T12:33:00;3.20;93.60
34829;DHT22;21042;47.620;12.188;2023-02-10T12:35:55;3.30;94.00
34829;DHT22;21042;47.620;12.188;2023-02-10T12:38:29;3.50;93.80
34829;DHT22;21042;47.620;12.188;2023-02-10T12:41:15;3.60;93.20
34829;DHT22;21042;47.620;12.188;2023-02-10T12:47:20;3.80;91.90
34829;DHT22;21042;47.620;12.188;2023-02-10T12:50:32;3.80;92.10
34829;DHT22;21042;47.620;12.188;2023-02-10T12:53:11;3.90;91.80
34829;DHT22;21042;47.620;12.188;2023-02-10T12:58:34;4.00;91.00
34829;DHT22;21042;47.620;12.188;2023-02-10T13:03:49;4.10;91.80
34829;DHT22;21042;47.620;12.188;2023-02-10T13:14:21;4.20;90.90
34829;DHT22;21042;47.620;12.188;2023-02-10T13:16:54;4.20;90.80
34829;DHT22;21042;47.620;12.188;2023-02-10T13:19:45;4.30;90.70
34829;DHT22;21042;47.620;12.188;2023-02-10T13:25:30;4.40;88.90
34829;DHT22;21042;47.620;12.188;2023-02-10T13:28:27;4.60;90.00
34829;DHT22;21042;47.620;12.188;2023-02-10T13:31:04;4.50;89.40
34829;DHT22;21042;47.620;12.188;2023-02-10T13:33:48;4.50;89.00
34829;DHT22;21042;47.620;12.188;2023-02-10T13:36:22;4.50;88.60
34829;DHT22;21042;47.620;12.188;2023-02-10T13:39:15;4.60;89.00
34829;DHT22;21042;47.620;12.188;2023-02-10T13:41:45;4.70;89.40
34829;DHT22;21042;47.620;12.188;2023-02-10T13:44:30;4.70;89.20
34829;DHT22;21042;47.620;12.188;2023-02-10T13:47:14;4.80;88.90
34829;DHT22;21042;47.620;12.188;2023-02-10T13:50:18;4.80;89.40
34829;DHT22;21042;47.620;12.188;2023-02-10T13:53:04;4.80;88.10
34829;DHT22;21042;47.620;12.188;2023-02-10T14:00:48;4.80;88.70
34829;DHT22;21042;47.620;12.188;2023-02-10T14:05:56;4.30;87.00
34829;DHT22;21042;47.620;12.188;2023-02-10T14:16:30;4.90;87.10
34829;DHT22;21042;47.620;12.188;2023-02-10T14:19:00;4.90;86.80
34829;DHT22;21042;47.620;12.188;2023-02-10T14:21:40;4.90;86.30
34829;DHT22;21042;47.620;12.188;2023-02-10T14:24:14;4.90;86.20
34829;DHT22;21042;47.620;12.188;2023-02-10T14:26:53;4.90;86.30
34829;DHT22;21042;47.620;12.188;2023-02-10T14:29:22;4.90;86.30
34829;DHT22;21042;47.620;12.188;2023-02-10T14:31:52;4.90;86.00
34829;DHT22;21042;47.620;12.188;2023-02-10T14:34:27;4.90;86.20
34829;DHT22;21042;47.620;12.188;2023-02-10T14:37:20;4.90;86.30
34829;DHT22;21042;47.620;12.188;2023-02-10T14:39:59;4.90;86.30
34829;DHT22;21042;47.620;12.188;2023-02-10T14:42:31;4.90;87.50
34829;DHT22;21042;47.620;12.188;2023-02-10T14:45:00;5.00;88.00
34829;DHT22;21042;47.620;12.188;2023-02-10T14:47:36;4.90;87.70
34829;DHT22;21042;47.620;12.188;2023-02-10T14:50:05;5.00;87.60
34829;DHT22;21042;47.620;12.188;2023-02-10T14:52:45;4.90;87.20
34829;DHT22;21042;47.620;12.188;2023-02-10T14:55:31;4.90;87.20
34829;DHT22;21042;47.620;12.188;2023-02-10T14:58:18;5.00;87.40
34829;DHT22;21042;47.620;12.188;2023-02-10T15:03:34;5.00;87.00
34829;DHT22;21042;47.620;12.188;2023-02-10T15:06:01;4.90;87.20
34829;DHT22;21042;47.620;12.188;2023-02-10T15:08:39;4.90;87.10
34829;DHT22;21042;47.620;12.188;2023-02-10T15:11:17;4.90;87.20
34829;DHT22;21042;47.620;12.188;2023-02-10T15:14:09;4.80;87.00
34829;DHT22;21042;47.620;12.188;2023-02-10T15:16:37;4.80;86.80
34829;DHT22;21042;47.620;12.188;2023-02-10T15:19:13;4.70;87.10
34829;DHT22;21042;47.620;12.188;2023-02-10T15:21:40;4.70;87.10
34829;DHT22;21042;47.620;12.188;2023-02-10T15:24:27;4.60;87.20
34829;DHT22;21042;47.620;12.188;2023-02-10T15:27:13;4.60;87.50
34829;DHT22;21042;47.620;12.188;2023-02-10T15:29:41;4.50;87.80
34829;DHT22;21042;47.620;12.188;2023-02-10T15:32:17;4.20;90.50
34829;DHT22;21042;47.620;12.188;2023-02-10T15:34:44;4.10;91.30
34829;DHT22;21042;47.620;12.188;2023-02-10T15:37:22;3.90;91.50
34829;DHT22;21042;47.620;12.188;2023-02-10T15:39:58;3.90;91.90
34829;DHT22;21042;47.620;12.188;2023-02-10T15:42:31;3.70;92.20
34829;DHT22;21042;47.620;12.188;2023-02-10T15:45:19;3.50;92.20
34829;DHT22;21042;47.620;12.188;2023-02-10T15:48:08;3.30;92.70
34829;DHT22;21042;47.620;12.188;2023-02-10T15:50:36;3.10;93.40
34829;DHT22;21042;47.620;12.188;2023-02-10T15:53:07;3.00;94.10
34829;DHT22;21042;47.620;12.188;2023-02-10T15:55:39;2.80;94.50
34829;DHT22;21042;47.620;12.188;2023-02-10T15:58:06;2.50;95.00
34829;DHT22;21042;47.620;12.188;2023-02-10T16:00:34;2.40;95.30
34829;DHT22;21042;47.620;12.188;2023-02-10T16:03:02;2.20;95.60
34829;DHT22;21042;47.620;12.188;2023-02-10T16:05:30;2.10;95.80
34829;DHT22;21042;47.620;12.188;2023-02-10T16:08:03;2.00;96.00
34829;DHT22;21042;47.620;12.188;2023-02-10T16:10:31;2.00;96.30
34829;DHT22;21042;47.620;12.188;2023-02-10T16:12:58;1.90;96.00
34829;DHT22;21042;47.620;12.188;2023-02-10T16:15:25;1.90;96.20
34829;DHT22;21042;47.620;12.188;2023-02-10T16:17:55;1.90;96.60
34829;DHT22;21042;47.620;12.188;2023-02-10T16:20:25;1.80;96.70
34829;DHT22;21042;47.620;12.188;2023-02-10T16:22:53;1.80;96.30
34829;DHT22;21042;47.620;12.188;2023-02-10T16:25:22;1.80;96.70
34829;DHT22;21042;47.620;12.188;2023-02-10T16:27:51;1.80;97.20
34829;DHT22;21042;47.620;12.188;2023-02-10T16:30:22;1.80;97.40
34829;DHT22;21042;47.620;12.188;2023-02-10T16:32:50;1.70;97.60
34829;DHT22;21042;47.620;12.188;2023-02-10T16:35:17;1.70;98.10
34829;DHT22;21042;47.620;12.188;2023-02-10T16:37:44;1.60;98.50
34829;DHT22;21042;47.620;12.188;2023-02-10T16:40:21;1.60;99.00
34829;DHT22;21042;47.620;12.188;2023-02-10T16:42:48;1.50;99.00
34829;DHT22;21042;47.620;12.188;2023-02-10T16:45:15;1.50;99.40
34829;DHT22;21042;47.620;12.188;2023-02-10T16:47:42;1.50;99.60
34829;DHT22;21042;47.620;12.188;2023-02-10T16:50:24;1.40;99.80
34829;DHT22;21042;47.620;12.188;2023-02-10T16:52:51;1.40;99.90
34829;DHT22;21042;47.620;12.188;2023-02-10T16:55:18;1.30;99.90
34829;DHT22;21042;47.620;12.188;2023-02-10T16:57:46;1.30;99.90
34829;DHT22;21042;47.620;12.188;2023-02-10T17:00:14;1.20;99.90
34829;DHT22;21042;47.620;12.188;2023-02-10T17:02:41;1.20;99.90
34829;DHT22;21042;47.620;12.188;2023-02-10T17:05:09;1.10;99.90
34829;DHT22;21042;47.620;12.188;2023-02-10T17:07:37;1.00;99.90
34829;DHT22;21042;47.620;12.188;2023-02-10T17:10:05;1.00;99.90
34829;DHT22;21042;47.620;12.188;2023-02-10T17:12:32;1.00;99.90
34829;DHT22;21042;47.620;12.188;2023-02-10T17:14:59;0.90;99.90
34829;DHT22;21042;47.620;12.188;2023-02-10T17:17:26;0.90;99.90
34829;DHT22;21042;47.620;12.188;2023-02-10T17:19:53;0.90;99.90
34829;DHT22;21042;47.620;12.188;2023-02-10T17:22:19;0.90;99.90
34829;DHT22;21042;47.620;12.188;2023-02-10T17:27:17;0.70;99.90